Melrose, New Mexico
Current Conditions -  °F | °C
As of 6:56 PM on Saturday 25 Oct 2014 (Local Time) from K4MR Reporting Station
Clear Clear  
Wind Chill: 68°   Ceiling: Unl
Heat Index: 68°   Visibility: 10mi
Dew Point: 41°   Wind: 10mph
Humidity: 37%   Direction: 190°S
Pressure: 30.13"   Gusts: NA
Location:  34.43°N, 103.63°W
Report Text: K4MR 260056Z AUTO 19009KT 10SM CLR 20/05 A3013 RMK AO2 SLP161 T02010049
Loading
Personal Weather Stations






























Interactive Weather Map
Tropical Storm Tracking
New forecast layout! Learn more

10-Day Weather Forecast

Advertisements
Track Severe Weather on mobile